Time;durP1;ratioP1;P1;durP2;ratioP2;P2;SDS_P1;SDS_P2;PMS_P1;PMS_P2;Temp;Humidity;BMP_temperature;BMP_pressure;BME280_temperature;BME280_humidity;BME280_pressure;Samples;Min_cycle;Max_cycle;Signal;HPM_P1;HPM_P2
2023/05/20 00:00:37;;;;;;;6.97;6.47;;;7.90;80.30;;;;;;5114706;28;20169;-86
2023/05/20 00:03:03;;;;;;;9.27;6.80;;;8.00;80.10;;;;;;5114654;28;20241;-86
2023/05/20 00:05:28;;;;;;;7.10;6.50;;;8.10;80.00;;;;;;5113155;28;20180;-87
2023/05/20 00:07:54;;;;;;;7.20;6.57;;;8.10;79.70;;;;;;5113138;28;20177;-86
2023/05/20 00:10:19;;;;;;;7.13;6.53;;;8.20;79.50;;;;;;5113105;28;20536;-87
2023/05/20 00:12:45;;;;;;;7.70;7.07;;;8.20;79.40;;;;;;5114416;28;20221;-87
2023/05/20 00:15:13;;;;;;;7.90;7.30;;;8.10;79.30;;;;;;5112995;28;20609;-87
2023/05/20 00:17:38;;;;;;;7.40;6.80;;;8.10;79.40;;;;;;5114107;28;20651;-86
2023/05/20 00:20:05;;;;;;;8.37;7.50;;;8.00;79.40;;;;;;5114162;28;20162;-87
2023/05/20 00:22:30;;;;;;;7.43;6.87;;;8.00;79.50;;;;;;5112763;28;20251;-86
2023/05/20 00:24:56;;;;;;;16.80;15.50;;;8.00;79.70;;;;;;5112750;28;20631;-86
2023/05/20 00:27:22;;;;;;;18.07;16.67;;;7.90;80.00;;;;;;5113200;28;20193;-86
2023/05/20 00:29:48;;;;;;;16.77;15.63;;;7.80;80.20;;;;;;5114265;28;20205;-86
2023/05/20 00:32:14;;;;;;;17.23;16.10;;;7.80;80.50;;;;;;5112739;28;20762;-85
2023/05/20 00:34:41;;;;;;;16.67;15.47;;;7.80;80.80;;;;;;5112645;28;20662;-86
2023/05/20 00:37:07;;;;;;;16.83;15.30;;;7.70;81.10;;;;;;5112626;28;20678;-86
2023/05/20 00:39:32;;;;;;;16.30;14.97;;;7.80;81.20;;;;;;5113803;28;20202;-85
2023/05/20 00:42:01;;;;;;;16.43;15.20;;;7.80;81.40;;;;;;5112383;28;20255;-86
2023/05/20 00:44:26;;;;;;;15.40;14.27;;;7.80;81.60;;;;;;5114120;28;20172;-86
2023/05/20 00:46:53;;;;;;;15.13;14.07;;;7.80;81.70;;;;;;5112651;28;20174;-86
2023/05/20 00:49:18;;;;;;;17.27;15.80;;;7.80;81.80;;;;;;5112538;28;20166;-86
2023/05/20 00:51:45;;;;;;;16.20;14.83;;;7.80;81.80;;;;;;5112374;28;20201;-86
2023/05/20 00:54:11;;;;;;;14.03;12.90;;;7.90;81.80;;;;;;5113684;28;20178;-86
2023/05/20 00:56:36;;;;;;;17.10;15.80;;;7.90;81.90;;;;;;5113656;28;20643;-86
2023/05/20 00:59:02;;;;;;;15.33;14.07;;;7.90;82.00;;;;;;5113556;28;20193;-86
2023/05/20 01:01:28;;;;;;;15.70;14.33;;;8.00;82.20;;;;;;5112636;28;20201;-86
2023/05/20 01:03:53;;;;;;;15.60;14.50;;;8.00;82.30;;;;;;5112372;28;20696;-85
2023/05/20 01:06:19;;;;;;;15.50;14.40;;;8.00;82.30;;;;;;5114045;28;20177;-86
2023/05/20 01:08:44;;;;;;;15.63;14.23;;;8.00;82.50;;;;;;5113822;28;20248;-86
2023/05/20 01:11:25;;;;;;;15.33;14.00;;;8.00;82.80;;;;;;5112193;28;20198;-85
2023/05/20 01:13:57;;;;;;;15.37;13.97;;;8.00;83.20;;;;;;5115701;28;20215;-85
2023/05/20 01:16:23;;;;;;;15.00;13.33;;;7.90;83.50;;;;;;5116425;28;20210;-86
2023/05/20 01:18:54;;;;;;;14.07;12.97;;;8.00;83.80;;;;;;5116241;28;20200;-86
2023/05/20 01:21:20;;;;;;;14.17;13.27;;;8.00;84.10;;;;;;5116215;28;20197;-86
2023/05/20 01:23:47;;;;;;;15.07;14.07;;;8.00;84.30;;;;;;5116696;28;20199;-85
2023/05/20 01:26:13;;;;;;;13.40;12.13;;;8.00;84.40;;;;;;5117292;28;20178;-86
2023/05/20 01:28:42;;;;;;;13.33;12.33;;;8.00;84.50;;;;;;5117339;28;20166;-86
2023/05/20 01:31:13;;;;;;;13.27;11.90;;;8.00;84.60;;;;;;5115970;28;20201;-86
2023/05/20 01:33:40;;;;;;;12.87;11.87;;;8.00;84.80;;;;;;5116026;28;20311;-85
2023/05/20 01:36:07;;;;;;;13.07;11.90;;;8.00;84.90;;;;;;5117566;28;20174;-86
2023/05/20 01:38:35;;;;;;;13.37;12.47;;;8.00;85.00;;;;;;5115968;28;20202;-86
2023/05/20 01:41:03;;;;;;;13.03;12.03;;;8.00;85.00;;;;;;5115863;28;20746;-85
2023/05/20 01:43:29;;;;;;;13.87;12.63;;;8.10;85.00;;;;;;5117374;28;20162;-86
2023/05/20 01:45:55;;;;;;;13.50;12.40;;;8.00;85.10;;;;;;5117076;28;20177;-86
2023/05/20 01:48:20;;;;;;;13.83;12.23;;;8.00;85.10;;;;;;5117311;28;20178;-86
2023/05/20 01:50:46;;;;;;;12.57;11.57;;;8.00;85.20;;;;;;5115698;28;20190;-85
2023/05/20 01:53:12;;;;;;;12.67;11.87;;;8.00;85.30;;;;;;5115767;28;20209;-86
2023/05/20 01:55:37;;;;;;;13.23;11.97;;;8.00;85.40;;;;;;5115643;28;20177;-86
2023/05/20 01:58:03;;;;;;;17.43;12.40;;;7.90;85.40;;;;;;5116841;28;20672;-86
2023/05/20 02:00:29;;;;;;;13.60;12.60;;;7.80;85.60;;;;;;5115535;28;20197;-85
2023/05/20 02:02:55;;;;;;;12.73;11.93;;;7.80;85.70;;;;;;5117064;28;20167;-86
2023/05/20 02:05:20;;;;;;;12.57;11.63;;;7.70;85.70;;;;;;5115501;28;20169;-86
2023/05/20 02:07:46;;;;;;;12.27;11.47;;;7.70;85.80;;;;;;5115370;28;20538;-85
2023/05/20 02:10:11;;;;;;;12.73;11.73;;;7.70;85.90;;;;;;5116642;28;20251;-86
2023/05/20 02:12:37;;;;;;;13.17;12.07;;;7.70;85.90;;;;;;5115339;28;20335;-86
2023/05/20 02:15:03;;;;;;;13.07;11.73;;;7.70;85.80;;;;;;5115245;28;20227;-86
2023/05/20 02:17:28;;;;;;;13.17;12.00;;;7.60;86.00;;;;;;5115128;28;20185;-85
2023/05/20 02:19:54;;;;;;;13.33;12.17;;;7.60;86.20;;;;;;5115155;28;20233;-85
2023/05/20 02:22:19;;;;;;;13.03;11.83;;;7.60;86.10;;;;;;5115097;28;20285;-85
2023/05/20 02:24:45;;;;;;;12.17;11.17;;;7.70;86.10;;;;;;5113816;28;20178;-85
2023/05/20 02:27:11;;;;;;;13.27;12.27;;;7.70;86.00;;;;;;5115246;28;20283;-86
2023/05/20 02:29:37;;;;;;;12.80;12.00;;;7.60;85.90;;;;;;5114929;28;20223;-85
2023/05/20 02:32:03;;;;;;;13.23;11.90;;;7.60;86.10;;;;;;5115020;28;20190;-86
2023/05/20 02:34:30;;;;;;;13.17;12.17;;;7.60;86.20;;;;;;5114944;28;20184;-86
2023/05/20 02:36:55;;;;;;;12.80;11.90;;;7.50;86.10;;;;;;5114954;28;20174;-86
2023/05/20 02:39:21;;;;;;;13.07;11.97;;;7.50;86.10;;;;;;5114784;28;20202;-86
2023/05/20 02:41:47;;;;;;;10.87;10.17;;;7.50;86.10;;;;;;5114693;28;20671;-85
2023/05/20 02:44:13;;;;;;;12.77;11.87;;;7.50;86.10;;;;;;5114714;28;20181;-85
2023/05/20 02:46:38;;;;;;;11.67;10.87;;;7.40;86.20;;;;;;5115849;28;20205;-86
2023/05/20 02:49:04;;;;;;;12.63;11.53;;;7.40;86.40;;;;;;5115041;28;20319;-86
2023/05/20 02:51:32;;;;;;;11.73;10.80;;;7.30;86.40;;;;;;5114518;28;20233;-86
2023/05/20 02:53:57;;;;;;;11.50;10.73;;;7.30;86.60;;;;;;5116068;28;20189;-86
2023/05/20 02:56:23;;;;;;;11.23;10.33;;;7.30;86.70;;;;;;5114553;28;20178;-86
2023/05/20 02:58:49;;;;;;;11.77;10.73;;;7.30;86.70;;;;;;5114488;28;20289;-86
2023/05/20 03:01:14;;;;;;;12.27;11.40;;;7.30;86.70;;;;;;5115668;28;20563;-85
2023/05/20 03:03:41;;;;;;;12.50;11.50;;;7.30;86.70;;;;;;5115606;28;20174;-86
2023/05/20 03:06:06;;;;;;;8.37;4.63;;;7.40;86.70;;;;;;5115547;28;20177;-86
2023/05/20 03:08:35;;;;;;;5.83;5.13;;;7.40;86.70;;;;;;5115571;28;20174;-86
2023/05/20 03:11:01;;;;;;;5.10;4.70;;;7.40;86.70;;;;;;5115364;28;20196;-85
2023/05/20 03:13:27;;;;;;;9.50;4.90;;;7.30;86.70;;;;;;5114173;28;20173;-86
2023/05/20 03:15:52;;;;;;;5.00;4.53;;;7.40;86.70;;;;;;5115363;28;20604;-86
2023/05/20 03:18:18;;;;;;;4.87;4.47;;;7.40;86.80;;;;;;5114042;28;20202;-86
2023/05/20 03:20:45;;;;;;;5.40;4.90;;;7.40;86.80;;;;;;5114299;28;20194;-85
2023/05/20 03:23:11;;;;;;;5.33;4.83;;;7.40;86.90;;;;;;5114002;28;20177;-86
2023/05/20 03:25:37;;;;;;;5.30;4.80;;;7.40;86.80;;;;;;5113726;28;20330;-85
2023/05/20 03:28:04;;;;;;;5.47;4.43;;;7.50;86.90;;;;;;5113902;28;20178;-86
2023/05/20 03:30:30;;;;;;;9.80;4.83;;;7.50;86.90;;;;;;5114911;28;20571;-85
2023/05/20 03:32:58;;;;;;;6.50;4.63;;;7.50;86.90;;;;;;5113827;28;20219;-86
2023/05/20 03:35:24;;;;;;;7.43;4.27;;;7.50;86.90;;;;;;5113387;28;20166;-86
2023/05/20 03:37:51;;;;;;;5.37;4.20;;;7.60;86.80;;;;;;5113673;28;20170;-86
2023/05/20 03:40:19;;;;;;;10.73;10.03;;;7.70;86.70;;;;;;5113652;28;20181;-86
2023/05/20 03:42:45;;;;;;;11.43;10.60;;;7.70;86.60;;;;;;5114844;27;20561;-85
2023/05/20 03:45:11;;;;;;;12.00;10.90;;;7.70;86.60;;;;;;5113612;28;20265;-86
2023/05/20 03:47:36;;;;;;;12.10;11.20;;;7.70;86.50;;;;;;5113622;28;20239;-86
2023/05/20 03:50:02;;;;;;;11.63;10.67;;;7.70;86.60;;;;;;5114278;28;20174;-86
2023/05/20 03:52:27;;;;;;;11.13;10.23;;;7.80;86.60;;;;;;5113418;28;20194;-86
2023/05/20 03:54:53;;;;;;;10.50;9.40;;;7.90;86.50;;;;;;5113321;28;20177;-86
2023/05/20 03:57:19;;;;;;;11.13;10.10;;;8.00;86.30;;;;;;5113233;28;20269;-86
2023/05/20 03:59:44;;;;;;;12.67;9.43;;;8.10;86.20;;;;;;5113148;28;20285;-86
2023/05/20 04:02:10;;;;;;;10.23;9.53;;;8.00;86.20;;;;;;5113107;28;20346;-85
2023/05/20 04:04:36;;;;;;;10.97;10.07;;;8.10;86.20;;;;;;5113300;28;20174;-86
2023/05/20 04:07:03;;;;;;;10.50;9.87;;;8.20;86.20;;;;;;5113246;28;20177;-86
2023/05/20 04:09:29;;;;;;;10.90;10.10;;;8.20;86.20;;;;;;5114397;28;20197;-86
2023/05/20 04:11:54;;;;;;;13.20;10.43;;;8.30;86.20;;;;;;5114204;28;20193;-86
2023/05/20 04:14:20;;;;;;;13.87;9.53;;;8.30;86.30;;;;;;5114253;28;20177;-86
2023/05/20 04:16:45;;;;;;;10.77;9.87;;;8.30;86.40;;;;;;5112893;28;20232;-86
2023/05/20 04:19:11;;;;;;;10.80;9.90;;;8.30;86.50;;;;;;5113992;28;20197;-85
2023/05/20 04:21:37;;;;;;;10.57;8.73;;;8.30;86.60;;;;;;5114103;28;20608;-86
2023/05/20 04:24:03;;;;;;;10.67;9.70;;;8.40;86.80;;;;;;5114374;28;20178;-86
2023/05/20 04:26:29;;;;;;;9.87;8.83;;;8.40;86.90;;;;;;5112687;28;20723;-86
2023/05/20 04:28:57;;;;;;;9.70;8.80;;;8.50;87.00;;;;;;5112807;28;20216;-85
2023/05/20 04:31:25;;;;;;;10.03;7.90;;;8.60;87.10;;;;;;5113941;28;20193;-85
2023/05/20 04:33:51;;;;;;;10.70;8.60;;;8.70;87.10;;;;;;5112756;28;20174;-86
2023/05/20 04:36:17;;;;;;;9.20;8.60;;;8.80;87.10;;;;;;5114151;28;20231;-86
2023/05/20 04:38:43;;;;;;;10.03;9.13;;;8.90;87.00;;;;;;5113728;28;20202;-86
2023/05/20 04:41:09;;;;;;;10.40;9.50;;;9.10;86.90;;;;;;5112527;28;20236;-85
2023/05/20 04:43:37;;;;;;;9.17;8.37;;;9.20;86.70;;;;;;5112505;28;20184;-85
2023/05/20 04:46:04;;;;;;;10.27;9.47;;;9.30;86.40;;;;;;5112585;28;20260;-86
2023/05/20 04:48:31;;;;;;;11.93;9.50;;;9.50;86.30;;;;;;5111830;28;20265;-86
2023/05/20 04:50:56;;;;;;;11.10;10.00;;;9.60;85.90;;;;;;5112402;28;20560;-85
2023/05/20 04:53:22;;;;;;;10.67;9.80;;;9.70;85.70;;;;;;5112330;28;20178;-85
2023/05/20 04:55:48;;;;;;;10.97;10.13;;;9.80;85.40;;;;;;5113295;28;20205;-86
2023/05/20 04:58:16;;;;;;;10.47;9.63;;;9.90;85.40;;;;;;5113762;28;20200;-86
2023/05/20 05:00:42;;;;;;;12.00;11.00;;;10.00;85.40;;;;;;5113501;28;20170;-85
2023/05/20 05:03:08;;;;;;;11.43;10.43;;;10.10;85.30;;;;;;5113546;28;20174;-86
2023/05/20 05:05:37;;;;;;;10.83;10.07;;;10.20;85.10;;;;;;5113849;28;20636;-86
2023/05/20 05:08:04;;;;;;;11.03;10.13;;;10.30;85.00;;;;;;5113545;28;20162;-86
2023/05/20 05:10:30;;;;;;;11.00;10.00;;;10.30;84.90;;;;;;5113461;28;20166;-85
2023/05/20 05:12:56;;;;;;;11.23;10.23;;;10.40;84.30;;;;;;5113452;28;20170;-86
2023/05/20 05:15:21;;;;;;;12.73;11.43;;;10.50;84.50;;;;;;5112232;28;20624;-85
2023/05/20 05:17:47;;;;;;;11.63;10.70;;;10.60;84.40;;;;;;5112147;28;20174;-85
2023/05/20 05:20:13;;;;;;;13.20;10.43;;;10.70;84.30;;;;;;5113443;28;20300;-85
2023/05/20 05:22:40;;;;;;;12.07;10.93;;;10.70;84.00;;;;;;5113542;28;20190;-86
2023/05/20 05:25:06;;;;;;;12.67;11.50;;;10.80;84.00;;;;;;5112003;28;20194;-86
2023/05/20 05:27:32;;;;;;;12.57;11.47;;;10.90;84.00;;;;;;5112339;28;20170;-85
2023/05/20 05:29:58;;;;;;;6.53;5.53;;;11.00;83.70;;;;;;5112067;28;20550;-85
2023/05/20 05:32:24;;;;;;;15.37;6.00;;;11.00;83.20;;;;;;5112086;28;20198;-86
2023/05/20 05:34:50;;;;;;;6.43;5.83;;;11.10;83.10;;;;;;5113393;28;20684;-85
2023/05/20 05:37:15;;;;;;;5.90;5.23;;;11.20;82.80;;;;;;5111963;28;20178;-85
2023/05/20 05:39:41;;;;;;;6.47;5.80;;;11.20;82.60;;;;;;5111944;28;20197;-85
2023/05/20 05:42:06;;;;;;;6.53;5.60;;;11.30;82.40;;;;;;5113098;28;20190;-85
2023/05/20 05:44:32;;;;;;;6.20;5.63;;;11.30;82.50;;;;;;5111911;28;20234;-85
2023/05/20 05:46:57;;;;;;;8.47;5.73;;;11.40;82.00;;;;;;5111867;28;20170;-86
2023/05/20 05:49:23;;;;;;;9.20;5.33;;;11.50;82.30;;;;;;5113108;28;20186;-86
2023/05/20 05:51:50;;;;;;;7.70;5.60;;;11.60;82.00;;;;;;5113083;28;20198;-86
2023/05/20 05:54:15;;;;;;;7.17;5.07;;;11.70;82.00;;;;;;5111885;28;20182;-85
2023/05/20 05:56:41;;;;;;;6.50;5.43;;;11.80;81.70;;;;;;5112553;28;20185;-86
2023/05/20 05:59:06;;;;;;;6.10;5.50;;;11.80;81.60;;;;;;5114997;28;20258;-86
2023/05/20 06:01:32;;;;;;;9.10;6.73;;;11.90;81.60;;;;;;5115563;28;20194;-85
2023/05/20 06:03:57;;;;;;;8.87;6.70;;;12.00;81.30;;;;;;5115591;28;20177;-86
2023/05/20 06:06:23;;;;;;;12.00;10.90;;;12.10;81.00;;;;;;5115593;28;20219;-86
2023/05/20 06:08:48;;;;;;;14.67;12.90;;;12.20;81.10;;;;;;5117028;28;20184;-86
2023/05/20 06:11:14;;;;;;;14.67;13.17;;;12.30;80.70;;;;;;5115436;28;20267;-86
2023/05/20 06:13:40;;;;;;;14.17;12.70;;;12.40;81.00;;;;;;5116710;28;20185;-86
2023/05/20 06:16:05;;;;;;;14.63;12.27;;;12.50;80.50;;;;;;5115489;28;20274;-86
2023/05/20 06:18:31;;;;;;;12.33;11.43;;;12.60;80.10;;;;;;5116736;28;20266;-86
2023/05/20 06:20:57;;;;;;;13.83;12.60;;;12.70;79.70;;;;;;5115109;28;20207;-86
2023/05/20 06:23:23;;;;;;;14.03;12.63;;;12.70;79.30;;;;;;5115187;28;20170;-86
2023/05/20 06:25:49;;;;;;;13.33;12.10;;;12.80;79.40;;;;;;5116361;28;20190;-86
2023/05/20 06:28:15;;;;;;;14.57;13.27;;;12.90;78.90;;;;;;5115278;28;20205;-86
2023/05/20 06:30:40;;;;;;;13.57;12.50;;;12.90;78.80;;;;;;5115143;28;20262;-86
2023/05/20 06:33:06;;;;;;;13.80;12.70;;;13.00;78.70;;;;;;5115101;28;20178;-86
2023/05/20 06:35:34;;;;;;;11.90;11.00;;;13.00;78.90;;;;;;5114887;28;20182;-86
2023/05/20 06:38:00;;;;;;;12.77;11.23;;;13.10;78.60;;;;;;5116236;28;20639;-86
2023/05/20 06:40:26;;;;;;;13.57;12.57;;;13.20;78.80;;;;;;5114781;28;20174;-85
2023/05/20 06:42:52;;;;;;;13.43;12.47;;;13.20;78.40;;;;;;5114828;28;20220;-86
2023/05/20 06:45:18;;;;;;;14.37;12.90;;;13.20;78.10;;;;;;5114609;28;20166;-86
2023/05/20 06:47:43;;;;;;;12.83;11.67;;;13.30;77.60;;;;;;5114714;28;20196;-86
2023/05/20 06:50:10;;;;;;;12.60;11.67;;;13.50;77.80;;;;;;5114637;28;20193;-86
2023/05/20 06:52:35;;;;;;;13.73;11.37;;;13.60;77.80;;;;;;5115858;28;20204;-86
2023/05/20 06:55:02;;;;;;;12.27;11.27;;;13.50;77.20;;;;;;5114512;28;20182;-86
2023/05/20 06:57:27;;;;;;;5.93;5.00;;;13.60;77.20;;;;;;5116148;28;20639;-86
2023/05/20 06:59:53;;;;;;;7.70;5.20;;;13.70;77.50;;;;;;5114405;28;20198;-86
2023/05/20 07:02:19;;;;;;;10.57;5.57;;;13.70;76.60;;;;;;5115792;28;20190;-86
2023/05/20 07:04:45;;;;;;;8.20;5.33;;;13.80;76.50;;;;;;5114323;28;20178;-86
2023/05/20 07:07:10;;;;;;;6.73;5.80;;;13.90;76.20;;;;;;5114224;28;20170;-85
2023/05/20 07:09:36;;;;;;;5.80;5.40;;;14.00;76.70;;;;;;5115326;28;20654;-85
2023/05/20 07:12:02;;;;;;;6.80;6.10;;;14.00;75.50;;;;;;5114978;28;20190;-85
2023/05/20 07:14:28;;;;;;;8.60;6.73;;;14.00;75.00;;;;;;5114083;28;20617;-85
2023/05/20 07:16:53;;;;;;;8.13;7.20;;;14.10;75.70;;;;;;5114085;28;20182;-85
2023/05/20 07:19:19;;;;;;;10.07;7.20;;;14.10;76.30;;;;;;5114188;28;20727;-86
2023/05/20 07:21:44;;;;;;;8.17;6.90;;;14.30;75.90;;;;;;5115289;28;20194;-86
2023/05/20 07:24:10;;;;;;;9.83;7.17;;;14.30;75.90;;;;;;5115565;27;20174;-86
2023/05/20 07:26:35;;;;;;;8.27;7.50;;;14.30;75.40;;;;;;5113961;28;20610;-86
2023/05/20 07:29:05;;;;;;;11.13;7.40;;;14.30;75.50;;;;;;5113876;28;20595;-85
2023/05/20 07:31:31;;;;;;;8.20;7.50;;;14.30;75.40;;;;;;5113936;28;20671;-86
2023/05/20 07:33:57;;;;;;;7.40;6.73;;;14.30;75.10;;;;;;5115008;28;20201;-86
2023/05/20 07:36:22;;;;;;;17.33;15.57;;;14.40;74.70;;;;;;5113783;28;20185;-87
2023/05/20 07:38:48;;;;;;;16.30;15.00;;;14.60;75.10;;;;;;5113579;28;20202;-86
2023/05/20 07:41:14;;;;;;;15.67;14.57;;;14.50;73.80;;;;;;5113590;28;20289;-86
2023/05/20 07:43:39;;;;;;;16.53;15.03;;;14.60;73.80;;;;;;5114881;28;20178;-86
2023/05/20 07:46:05;;;;;;;19.80;14.90;;;14.70;74.20;;;;;;5113656;28;20174;-86
2023/05/20 07:48:30;;;;;;;15.77;14.27;;;14.80;74.30;;;;;;5114534;28;20174;-86
2023/05/20 07:50:58;;;;;;;15.77;14.50;;;14.90;73.90;;;;;;5113548;28;20222;-86
2023/05/20 07:53:24;;;;;;;18.73;14.60;;;15.00;73.20;;;;;;5114980;28;20162;-86
2023/05/20 07:55:49;;;;;;;16.17;14.65;;;15.20;72.80;;;;;;5113371;28;20182;-86
2023/05/20 07:58:15;;;;;;;17.33;16.00;;;15.30;72.70;;;;;;5113295;28;20217;-86
2023/05/20 08:00:40;;;;;;;16.90;15.60;;;15.30;70.40;;;;;;5113198;28;20166;-86
2023/05/20 08:03:06;;;;;;;15.80;14.67;;;15.40;71.10;;;;;;5113338;28;20181;-86
2023/05/20 08:05:32;;;;;;;17.20;15.90;;;15.60;72.30;;;;;;5114396;28;20162;-86
2023/05/20 08:07:58;;;;;;;16.83;15.73;;;15.70;70.60;;;;;;5114427;28;20166;-86
2023/05/20 08:10:23;;;;;;;17.02;15.82;;;15.80;68.60;;;;;;5113157;28;20213;-86
2023/05/20 08:12:49;;;;;;;16.92;15.52;;;16.00;70.00;;;;;;5113476;28;20190;-86
2023/05/20 08:15:14;;;;;;;17.15;15.73;;;16.20;71.10;;;;;;5114779;28;20588;-86
2023/05/20 08:17:40;;;;;;;17.42;16.23;;;16.30;69.20;;;;;;5113202;28;20643;-86
2023/05/20 08:20:09;;;;;;;10.70;9.88;;;16.20;67.70;;;;;;5114350;28;20213;-86
2023/05/20 08:22:37;;;;;;;11.02;10.15;;;16.20;67.90;;;;;;5113542;28;20563;-85
2023/05/20 08:25:03;;;;;;;10.25;9.45;;;16.20;68.80;;;;;;5114036;28;20174;-86
2023/05/20 08:27:28;;;;;;;10.20;9.50;;;16.30;68.30;;;;;;5113394;28;20170;-86
2023/05/20 08:29:54;;;;;;;10.15;9.20;;;16.20;66.90;;;;;;5112765;28;20177;-86
2023/05/20 08:32:19;;;;;;;11.00;10.07;;;16.40;69.10;;;;;;5112738;28;20566;-88
2023/05/20 08:34:47;;;;;;;11.52;10.18;;;16.50;65.90;;;;;;5112870;28;20294;-86
2023/05/20 08:37:13;;;;;;;12.27;11.15;;;16.40;67.40;;;;;;5113099;28;20189;-86
2023/05/20 08:39:39;;;;;;;11.50;10.65;;;16.40;66.50;;;;;;5112843;28;20614;-86
2023/05/20 08:42:06;;;;;;;11.57;10.68;;;16.40;65.40;;;;;;5112864;28;20189;-86
2023/05/20 08:44:33;;;;;;;10.80;9.88;;;16.50;66.90;;;;;;5113954;28;20190;-86
2023/05/20 08:46:58;;;;;;;12.10;10.95;;;16.70;67.60;;;;;;5112663;28;20170;-86
2023/05/20 08:49:24;;;;;;;11.65;10.65;;;16.40;68.40;;;;;;5112715;28;20170;-86
2023/05/20 08:51:50;;;;;;;13.18;12.27;;;16.30;68.90;;;;;;5112675;28;20698;-86
2023/05/20 08:54:16;;;;;;;10.48;9.57;;;16.30;66.10;;;;;;5112805;28;20530;-86
2023/05/20 08:56:42;;;;;;;11.55;10.65;;;16.50;67.70;;;;;;5113961;28;20322;-87
2023/05/20 08:59:08;;;;;;;20.50;18.77;;;16.50;66.20;;;;;;5112628;28;20198;-86
2023/05/20 09:01:40;;;;;;;19.60;18.10;;;16.60;66.50;;;;;;5112517;28;20276;-86
2023/05/20 09:04:07;;;;;;;20.05;18.50;;;16.70;66.30;;;;;;5112570;28;20166;-86
2023/05/20 09:06:42;;;;;;;20.35;18.63;;;16.80;65.60;;;;;;5113822;28;20166;-87
2023/05/20 09:09:13;;;;;;;21.45;19.52;;;16.80;66.60;;;;;;5112668;28;20169;-87
2023/05/20 09:11:42;;;;;;;19.73;18.23;;;16.80;64.70;;;;;;5113829;27;20198;-87
2023/05/20 09:14:07;;;;;;;19.80;18.40;;;16.80;65.90;;;;;;5112388;28;20178;-88
2023/05/20 09:16:33;;;;;;;19.80;18.15;;;16.90;66.80;;;;;;5112582;28;20578;-89
2023/05/20 09:18:59;;;;;;;19.60;18.30;;;16.80;64.80;;;;;;5112669;28;20197;-87
2023/05/20 09:21:28;;;;;;;18.48;17.23;;;16.60;67.00;;;;;;5113659;28;20190;-87
2023/05/20 09:23:56;;;;;;;18.27;17.15;;;16.20;65.90;;;;;;5112437;28;20223;-87
2023/05/20 09:26:23;;;;;;;20.35;18.95;;;16.40;66.60;;;;;;5113590;28;20185;-86
2023/05/20 09:28:50;;;;;;;20.25;18.95;;;16.20;65.30;;;;;;5112333;28;20205;-87
2023/05/20 09:31:15;;;;;;;20.15;18.58;;;16.10;65.80;;;;;;5112155;28;20201;-86
2023/05/20 09:33:42;;;;;;;20.60;18.98;;;16.10;66.60;;;;;;5113645;28;20174;-86
2023/05/20 09:36:08;;;;;;;19.98;18.58;;;16.40;65.60;;;;;;5117753;28;20174;-85
2023/05/20 09:38:38;;;;;;;20.45;19.15;;;16.70;64.30;;;;;;5116269;28;20194;-86
2023/05/20 09:41:10;;;;;;;21.23;19.88;;;16.80;64.70;;;;;;5117350;28;20182;-86
2023/05/20 09:43:36;;;;;;;12.88;11.85;;;16.70;62.90;;;;;;5117623;27;20197;-86
2023/05/20 09:46:03;;;;;;;13.20;12.30;;;16.50;64.00;;;;;;5117322;28;20162;-86
2023/05/20 09:48:30;;;;;;;12.88;11.98;;;16.30;63.70;;;;;;5117219;28;20215;-85
2023/05/20 09:50:56;;;;;;;11.48;10.77;;;16.00;65.00;;;;;;5117158;28;20193;-86
2023/05/20 09:53:26;;;;;;;12.30;11.50;;;16.00;65.80;;;;;;5115950;28;20174;-86
2023/05/20 09:55:53;;;;;;;12.60;11.50;;;15.90;65.50;;;;;;5117528;28;20155;-86
2023/05/20 09:58:23;;;;;;;11.35;10.60;;;15.90;65.30;;;;;;5116158;28;20677;-87
2023/05/20 10:00:49;;;;;;;12.73;11.80;;;15.90;66.00;;;;;;5116086;28;20239;-87
2023/05/20 10:03:17;;;;;;;11.73;10.93;;;16.00;66.00;;;;;;5118108;28;20584;-87
2023/05/20 10:05:51;;;;;;;11.55;10.85;;;16.00;66.30;;;;;;5117452;28;20166;-87
2023/05/20 10:08:29;;;;;;;11.80;11.00;;;16.10;67.30;;;;;;5116176;28;20177;-87
2023/05/20 10:11:06;;;;;;;12.32;11.43;;;16.10;65.40;;;;;;5115751;28;20242;-87
2023/05/20 10:13:51;;;;;;;11.80;10.85;;;16.00;65.00;;;;;;5116924;28;20158;-87
2023/05/20 10:16:44;;;;;;;12.85;11.73;;;16.00;64.70;;;;;;5115658;28;20162;-87
2023/05/20 10:19:15;;;;;;;21.45;19.92;;;16.10;62.90;;;;;;5088926;28;20206;-87
2023/05/20 10:21:41;;;;;;;20.63;19.33;;;16.10;63.40;;;;;;5115439;28;20201;-88
2023/05/20 10:24:07;;;;;;;20.17;18.67;;;16.20;62.40;;;;;;5115716;28;20174;-85
2023/05/20 10:26:37;;;;;;;19.45;18.25;;;16.30;62.60;;;;;;5115688;28;20543;-86
2023/05/20 10:29:19;;;;;;;20.50;18.88;;;16.30;63.20;;;;;;5116621;28;20534;-87
2023/05/20 10:31:49;;;;;;;18.38;17.08;;;16.20;62.70;;;;;;5116628;28;20686;-86
2023/05/20 10:34:16;;;;;;;18.98;17.48;;;16.20;62.70;;;;;;5115172;28;20170;-87
2023/05/20 10:36:53;;;;;;;19.17;17.98;;;16.20;63.20;;;;;;5116609;28;20312;-87
2023/05/20 10:39:27;;;;;;;20.90;19.40;;;16.10;62.40;;;;;;5115513;28;20636;-87
2023/05/20 10:41:52;;;;;;;20.08;18.83;;;16.00;63.00;;;;;;5117383;28;20566;-86
2023/05/20 10:44:18;;;;;;;19.20;17.90;;;16.00;64.10;;;;;;5115573;28;20166;-86
2023/05/20 10:46:43;;;;;;;19.27;17.67;;;15.90;63.30;;;;;;5114547;28;20174;-86
2023/05/20 10:49:19;;;;;;;19.70;18.15;;;15.90;63.10;;;;;;5115393;28;20621;-86
2023/05/20 10:51:45;;;;;;;18.60;17.30;;;16.00;63.60;;;;;;5116342;28;20239;-86
2023/05/20 10:54:12;;;;;;;18.85;17.45;;;16.30;63.70;;;;;;5115837;27;20253;-86
2023/05/20 10:56:49;;;;;;;18.00;16.50;;;16.30;60.30;;;;;;5114574;28;20182;-86
2023/05/20 10:59:14;;;;;;;17.55;16.45;;;16.20;61.60;;;;;;5114490;28;20686;-85
2023/05/20 11:01:42;;;;;;;18.10;16.80;;;16.10;62.10;;;;;;5114759;28;20190;-86
2023/05/20 11:04:08;;;;;;;19.23;18.02;;;16.10;63.10;;;;;;5116339;28;20683;-85
2023/05/20 11:06:33;;;;;;;12.27;11.45;;;16.10;64.30;;;;;;5114636;28;20170;-86
2023/05/20 11:09:06;;;;;;;12.68;11.57;;;16.20;64.90;;;;;;5114372;28;20170;-86
2023/05/20 11:11:32;;;;;;;11.98;11.23;;;16.20;63.90;;;;;;5114300;28;20242;-85
2023/05/20 11:13:59;;;;;;;12.63;11.75;;;16.10;63.60;;;;;;5115329;28;20278;-85
2023/05/20 11:16:25;;;;;;;12.27;11.48;;;16.00;63.90;;;;;;5115417;28;20261;-85
2023/05/20 11:18:50;;;;;;;10.57;9.95;;;15.90;64.50;;;;;;5114057;28;20735;-85
2023/05/20 11:21:18;;;;;;;12.45;11.65;;;15.90;65.30;;;;;;5113921;28;20182;-85
2023/05/20 11:23:44;;;;;;;12.52;11.63;;;15.80;65.10;;;;;;5113927;28;20219;-85
2023/05/20 11:26:10;;;;;;;12.55;11.55;;;15.80;65.30;;;;;;5115147;28;20608;-85
2023/05/20 11:28:35;;;;;;;11.93;11.13;;;15.80;65.30;;;;;;5115403;28;20725;-85
2023/05/20 11:31:01;;;;;;;11.98;11.18;;;15.80;65.80;;;;;;5113892;28;20300;-85
2023/05/20 11:33:33;;;;;;;12.30;11.15;;;15.80;65.50;;;;;;5113913;28;20170;-85
2023/05/20 11:35:58;;;;;;;12.55;11.40;;;15.80;66.10;;;;;;5113819;28;20174;-85
2023/05/20 11:38:24;;;;;;;19.50;18.20;;;15.90;66.10;;;;;;5113782;28;20205;-85
2023/05/20 11:40:54;;;;;;;17.77;16.58;;;15.90;66.40;;;;;;5113764;28;20186;-85
2023/05/20 11:43:20;;;;;;;18.83;17.63;;;16.20;66.30;;;;;;5113780;28;20227;-87
2023/05/20 11:45:52;;;;;;;18.90;17.50;;;16.20;64.90;;;;;;5115507;28;20670;-86
2023/05/20 11:48:18;;;;;;;19.13;17.63;;;16.10;65.90;;;;;;5115027;28;20258;-85
2023/05/20 11:50:46;;;;;;;18.05;16.92;;;16.20;66.80;;;;;;5115810;28;20173;-86
2023/05/20 11:53:19;;;;;;;18.90;17.50;;;16.40;66.60;;;;;;5113817;28;20555;-86
2023/05/20 11:55:59;;;;;;;18.40;17.20;;;16.30;65.30;;;;;;5114624;28;20221;-86
2023/05/20 11:58:29;;;;;;;17.67;15.98;;;16.30;66.00;;;;;;5113500;28;20560;-86
2023/05/20 12:00:54;;;;;;;17.52;16.23;;;16.20;64.40;;;;;;5113681;28;20196;-86
2023/05/20 12:03:20;;;;;;;17.02;15.80;;;16.20;65.10;;;;;;5113290;28;20170;-85
2023/05/20 12:05:47;;;;;;;17.60;16.17;;;16.00;64.60;;;;;;5114713;28;20575;-86
2023/05/20 12:08:13;;;;;;;18.05;16.65;;;15.90;65.50;;;;;;5113887;28;20170;-86
2023/05/20 12:10:38;;;;;;;17.52;16.30;;;15.90;66.40;;;;;;5114422;27;20652;-85
2023/05/20 12:13:07;;;;;;;17.13;15.95;;;15.90;65.70;;;;;;5113323;28;20260;-85
2023/05/20 12:15:36;;;;;;;18.15;16.77;;;15.90;66.00;;;;;;5113514;28;20239;-87
2023/05/20 12:18:02;;;;;;;16.55;15.40;;;16.00;66.40;;;;;;5113361;28;20174;-88
2023/05/20 12:20:29;;;;;;;17.75;16.42;;;16.20;67.70;;;;;;5114226;28;20355;-87
2023/05/20 12:22:54;;;;;;;17.73;16.42;;;16.10;65.70;;;;;;5114401;28;20173;-87
2023/05/20 12:25:20;;;;;;;16.95;15.90;;;15.90;64.80;;;;;;5113348;28;20548;-87
2023/05/20 12:27:47;;;;;;;17.42;15.93;;;15.80;66.20;;;;;;5113181;28;20663;-86
2023/05/20 12:30:16;;;;;;;15.90;14.70;;;15.70;66.60;;;;;;5113097;28;20185;-85
2023/05/20 12:32:42;;;;;;;15.63;14.52;;;15.70;67.30;;;;;;5112859;28;20742;-86